Observations for BINGHAMTON BROOME, NY (BGM)

KBGM 242053Z 13010KT 10SM CLR 14/08 A3042 RMK AO2 SLP304 T01390083 56003
KBGM 241953Z 14013KT 10SM CLR 15/08 A3042 RMK AO2 SLP303 T01500083  
KBGM 241937Z 14015G20KT 10SM CLR 16/09 A3041 RMK AO2 T01610089
KBGM 241853Z AUTO 13014KT 10SM CLR 17/08 A3041 RMK AO2 SLP301 T01670078 
KBGM 241753Z 14015G19KT 10SM CLR 17/07 A3042 RMK AO2 SLP304 T01670072 10178 20072 56007 
KBGM 241653Z 14015G22KT 10SM CLR 17/07 A3043 RMK AO2 SLP305 T01720072   
KBGM 241553Z 14013KT 10SM CLR 16/07 A3043 RMK AO2 SLP307 T01610072  
KBGM 241453Z 13011KT 10SM CLR 13/09 A3045 RMK AO2 SLP313 T01330094 51012
KBGM 241411Z 12010KT 10SM SCT003 10/09 A3044 RMK AO2 T01000094
KBGM 241357Z 12009KT 10SM BKN003 09/09 A3044 RMK AO2 T00940094
KBGM 241353Z 10008KT 3SM BKN002 09/09 A3044 RMK AO2 SFC VIS 10 SLP312 T00890089 
KBGM 241329Z 09008KT 3SM BR OVC002 09/09 A3044 RMK AO2 T00890089
KBGM 241343Z 10008KT 2SM OVC002 09/09 A3044 RMK AO2 SFC VIS 10 T00890089
KBGM 241321Z 10008KT 1SM BR VV002 09/09 A3044 RMK AO2 T00890089
KBGM 241253Z 08007KT M1/4SM FG VV002 08/08 A3043 RMK AO2 SLP312 T00780078   
KBGM 241223Z 09006KT M1/4SM FG VV002 08/08 A3042 RMK AO2 T00780078
KBGM 241153Z 12006KT M1/4SM FG VV001 07/07 A3041 RMK AO2 SLP303 T00720072 10094 20061 53019 
KBGM 241053Z 09005KT 1/4SM FG VV001 06/06 A3039 RMK AO2 SLP296 T00610061
KBGM 240953Z 07005KT 1/4SM FG VV001 06/06 A3037 RMK AO2 SLP288 T00610061
KBGM 240853Z AUTO 06005KT 1/4SM FG VV001 07/07 A3035 RMK AO2 SLP281 T00720067 51005 
KBGM 240831Z AUTO 06004KT 1/2SM FG VV001 07/07 A3035 RMK AO2 T00720072
KBGM 240841Z AUTO 06004KT 1/4SM FG VV001 07/07 A3035 RMK AO2 T00720072
KBGM 240808Z AUTO 05003KT 2SM BR BKN001 08/08 A3034 RMK AO2 T00780078
KBGM 240818Z AUTO 06003KT 1SM BR VV001 07/07 A3035 RMK AO2 T00720072
KBGM 240753Z AUTO 00000KT 1/2SM FG VV001 08/08 A3035 RMK AO2 SLP278 T00780078   
KBGM 240731Z AUTO 06005KT 2SM BR BKN001 08/08 A3034 RMK AO2 T00780078
KBGM 240735Z AUTO 06005KT 5SM BR SCT001 08/08 A3034 RMK AO2 T00780078
KBGM 240740Z AUTO 05005KT 1 3/4SM BR BKN001 08/08 A3034 RMK AO2 T00780078
KBGM 240707Z AUTO 05006KT 1/2SM FG VV001 08/08 A3034 RMK AO2 T00830078
KBGM 240749Z AUTO 06004KT 1/2SM FG VV001 08/08 A3034 RMK AO2
KBGM 240653Z AUTO 05005KT 1/4SM FG VV001 08/08 A3034 RMK AO2 SLP276 T00780078   
KBGM 240628Z AUTO 06004KT 1/4SM FG VV001 08/08 A3034 RMK AO2 T00830083
KBGM 240615Z AUTO 06004KT 2SM BR FEW001 09/08 A3034 RMK AO2 T00890083
KBGM 240617Z AUTO 06004KT 3/4SM BR VV001 08/08 A3034 RMK AO2 T00830083
KBGM 240553Z AUTO 09004KT 10SM CLR 10/08 A3034 RMK AO2 SLP276 T01000083 10133 20089 53007   
KBGM 240453Z AUTO 05003KT 10SM CLR 10/09 A3033 RMK AO2 SLP273 T01000089 401500050   
KBGM 240353Z AUTO 13004KT 10SM CLR 09/09 A3032 RMK AO2 SLP270 T00940089 
KBGM 240253Z 06004KT 10SM CLR 11/09 A3031 RMK AO2 SLP268 T01060089 51013
KBGM 240153Z 00000KT 10SM CLR 12/08 A3031 RMK AO2 SLP267 T01170083  
KBGM 240053Z 12003KT 10SM CLR 12/09 A3029 RMK AO2 SLP261 T01170089  
KBGM 232353Z 02004KT 10SM CLR 12/09 A3027 RMK AO2 SLP257 T01220089 10150 20122 53009
KBGM 232253Z 04003KT 10SM CLR 14/09 A3026 RMK AO2 SLP251 T01390094  
KBGM 232153Z AUTO 00000KT 10SM CLR 14/09 A3025 RMK AO2 SLP246 T01440094 
KBGM 232053Z AUTO 00000KT 10SM CLR 15/09 A3025 RMK AO2 SLP245 T01500089 55003